Time;durP1;ratioP1;P1;durP2;ratioP2;P2;SDS_P1;SDS_P2;PMS_P1;PMS_P2;Temp;Humidity;BMP_temperature;BMP_pressure;BME280_temperature;BME280_humidity;BME280_pressure;Samples;Min_cycle;Max_cycle;Signal;HPM_P1;HPM_P2
2023/10/15 00:00:17;;;;;;;5.97;3.33;;;;;16.60;96526.00;;;;5046230;28;20666;-69
2023/10/15 00:03:08;;;;;;;1.07;0.77;;;;;16.60;96521.00;;;;5050113;28;20616;-69
2023/10/15 00:05:57;;;;;;;1.90;1.07;;;;;16.50;96495.00;;;;5043967;28;20192;-68
2023/10/15 00:08:46;;;;;;;2.23;1.43;;;;;15.90;96490.00;;;;5050217;28;20209;-69
2023/10/15 00:11:36;;;;;;;4.23;2.47;;;;;15.40;96499.00;;;;5049860;28;20216;-69
2023/10/15 00:14:25;;;;;;;4.43;2.50;;;;;16.00;96499.00;;;;5049396;28;20224;-70
2023/10/15 00:17:15;;;;;;;2.63;1.50;;;;;16.10;96490.00;;;;5049070;28;20205;-69
2023/10/15 00:20:10;;;;;;;2.40;1.43;;;;;16.20;96492.00;;;;5064257;28;20591;-70
2023/10/15 00:23:04;;;;;;;2.37;1.50;;;;;15.70;96485.00;;;;5047791;28;20248;-69
2023/10/15 00:25:53;;;;;;;4.07;2.50;;;;;15.80;96459.00;;;;5055596;28;20208;-69
2023/10/15 00:28:45;;;;;;;2.80;1.67;;;;;16.10;96458.00;;;;5050386;28;20204;-70
2023/10/15 00:31:34;;;;;;;4.63;2.80;;;;;15.90;96456.00;;;;5043078;28;20210;-70
2023/10/15 00:34:23;;;;;;;2.43;1.60;;;;;15.70;96444.00;;;;5050380;28;20220;-69
2023/10/15 00:37:13;;;;;;;3.00;1.70;;;;;15.90;96438.00;;;;5049795;28;20205;-70
2023/10/15 00:40:04;;;;;;;2.97;1.77;;;;;15.80;96450.00;;;;5044139;28;20200;-69
2023/10/15 00:42:53;;;;;;;2.17;1.37;;;;;15.70;96439.00;;;;5054809;28;20207;-69
2023/10/15 00:45:44;;;;;;;3.40;1.90;;;;;15.60;96436.00;;;;5044042;28;20217;-69
2023/10/15 00:48:35;;;;;;;4.20;2.40;;;;;15.70;96451.00;;;;5070072;28;20953;-69
2023/10/15 00:51:24;;;;;;;2.53;1.67;;;;;15.70;96447.00;;;;5050490;28;20200;-70
2023/10/15 00:54:16;;;;;;;1.97;1.20;;;;;15.80;96455.00;;;;5059130;28;20773;-70
2023/10/15 00:57:25;;;;;;;0.77;0.57;;;;;15.80;96476.00;;;;5049252;28;20196;-70
2023/10/15 01:03:30;;;;;;;3.57;1.97;;;;;15.80;96480.00;;;;5060840;28;20670;-69
2023/10/15 01:06:29;;;;;;;2.03;1.40;;;;;15.80;96489.00;;;;5045846;28;20208;-70
2023/10/15 01:09:20;;;;;;;1.87;1.20;;;;;15.90;96498.00;;;;5046034;28;20207;-70
2023/10/15 01:12:24;;;;;;;1.60;1.03;;;;;15.80;96506.00;;;;5051332;28;20204;-70
2023/10/15 01:15:13;;;;;;;3.67;2.17;;;;;15.90;96511.00;;;;5037203;28;20225;-70
2023/10/15 01:18:07;;;;;;;2.67;1.73;;;;;15.90;96503.00;;;;5058149;28;20208;-70
2023/10/15 01:21:01;;;;;;;2.47;1.53;;;;;15.60;96494.00;;;;5045080;28;20268;-69
2023/10/15 01:24:04;;;;;;;2.03;1.43;;;;;15.30;96501.00;;;;5057385;28;20239;-69
2023/10/15 01:27:03;;;;;;;2.23;1.53;;;;;15.60;96502.00;;;;5045076;28;20207;-70
2023/10/15 01:29:52;;;;;;;1.07;0.73;;;;;15.70;96511.00;;;;5060502;28;20200;-70
2023/10/15 01:32:44;;;;;;;2.97;1.97;;;;;15.80;96510.00;;;;5060506;28;20202;-70
2023/10/15 01:35:37;;;;;;;4.07;2.57;;;;;15.60;96517.00;;;;5065985;28;20228;-69
2023/10/15 01:38:27;;;;;;;2.63;1.70;;;;;15.70;96514.00;;;;5049105;28;20207;-70
2023/10/15 01:41:19;;;;;;;0.60;0.40;;;;;15.70;96494.00;;;;5061238;28;20205;-70
2023/10/15 01:44:10;;;;;;;2.17;1.47;;;;;15.90;96501.00;;;;5049356;28;20228;-69
2023/10/15 01:47:09;;;;;;;2.37;1.57;;;;;15.70;96501.00;;;;5049741;28;20588;-69
2023/10/15 01:49:58;;;;;;;2.37;1.67;;;;;15.70;96498.00;;;;5048905;28;20201;-69
2023/10/15 01:52:47;;;;;;;2.23;1.53;;;;;15.30;96500.00;;;;5052311;28;20196;-70
2023/10/15 01:55:36;;;;;;;3.90;2.47;;;;;15.40;96503.00;;;;5049090;28;20221;-70
2023/10/15 01:58:30;;;;;;;2.60;1.67;;;;;15.60;96500.00;;;;5048056;28;20212;-70
2023/10/15 02:01:26;;;;;;;0.83;0.60;;;;;15.50;96497.00;;;;5067937;28;20207;-70
2023/10/15 02:04:18;;;;;;;1.63;1.07;;;;;15.30;96504.00;;;;5060209;28;20220;-69
2023/10/15 02:07:07;;;;;;;2.57;1.53;;;;;15.20;96497.00;;;;5042857;28;20614;-69
2023/10/15 02:09:56;;;;;;;2.33;1.57;;;;;15.20;96497.00;;;;5047959;28;20590;-69
2023/10/15 02:12:51;;;;;;;2.07;1.47;;;;;15.20;96495.00;;;;5051693;28;20195;-69
2023/10/15 02:15:41;;;;;;;4.27;2.70;;;;;15.10;96485.00;;;;5058212;28;20227;-69
2023/10/15 02:18:31;;;;;;;4.47;2.80;;;;;14.90;96489.00;;;;5059024;28;20195;-69
2023/10/15 02:21:20;;;;;;;2.10;1.47;;;;;15.10;96499.00;;;;5056092;28;20209;-69
2023/10/15 02:24:09;;;;;;;2.43;1.63;;;;;15.20;96498.00;;;;5047129;28;20228;-68
2023/10/15 02:26:59;;;;;;;2.23;1.50;;;;;15.30;96499.00;;;;5047680;28;20208;-68
2023/10/15 02:29:49;;;;;;;1.90;1.40;;;;;15.50;96490.00;;;;5058463;28;20203;-68
2023/10/15 02:32:42;;;;;;;2.63;1.73;;;;;15.50;96510.00;;;;5048946;28;20262;-69
2023/10/15 02:35:39;;;;;;;3.67;2.50;;;;;15.50;96504.00;;;;5065465;28;20455;-68
2023/10/15 02:38:34;;;;;;;2.57;1.60;;;;;15.30;96506.00;;;;5054948;28;20204;-68
2023/10/15 02:41:25;;;;;;;0.90;0.63;;;;;15.40;96495.00;;;;5050782;28;20207;-68
2023/10/15 02:44:15;;;;;;;2.63;1.77;;;;;15.50;96502.00;;;;5051722;28;20226;-68
2023/10/15 02:47:19;;;;;;;2.13;1.50;;;;;15.50;96506.00;;;;5050799;28;20578;-69
2023/10/15 02:50:15;;;;;;;3.17;1.93;;;;;15.40;96500.00;;;;5051971;28;20200;-69
2023/10/15 02:53:05;;;;;;;2.37;1.57;;;;;15.40;96507.00;;;;5047230;28;20200;-68
2023/10/15 02:55:58;;;;;;;1.93;1.40;;;;;15.30;96513.00;;;;5047180;28;20212;-69
2023/10/15 02:58:47;;;;;;;2.23;1.43;;;;;15.40;96493.00;;;;5063741;28;20256;-68
2023/10/15 03:01:38;;;;;;;3.63;2.50;;;;;15.30;96507.00;;;;5057894;28;20611;-69
2023/10/15 03:04:33;;;;;;;3.07;2.03;;;;;15.40;96490.00;;;;5066887;28;20230;-68
2023/10/15 03:07:29;;;;;;;2.27;1.50;;;;;15.40;96497.00;;;;5066721;28;20199;-68
2023/10/15 03:10:22;;;;;;;4.07;2.30;;;;;15.40;96503.00;;;;5059000;28;20204;-68
2023/10/15 03:13:14;;;;;;;2.20;1.47;;;;;15.30;96515.00;;;;5055937;28;20250;-68
2023/10/15 03:16:07;;;;;;;1.43;0.90;;;;;15.20;96523.00;;;;5060280;28;20234;-68
2023/10/15 03:18:56;;;;;;;1.63;1.07;;;;;15.30;96518.00;;;;5052872;28;20256;-69
2023/10/15 03:21:45;;;;;;;2.57;1.60;;;;;15.10;96513.00;;;;5063137;28;20209;-68
2023/10/15 03:24:35;;;;;;;4.67;2.87;;;;;14.90;96520.00;;;;5045788;28;20232;-68
2023/10/15 03:27:27;;;;;;;2.37;1.47;;;;;15.10;96524.00;;;;5047376;28;20665;-68
2023/10/15 03:30:22;;;;;;;1.73;1.17;;;;;15.00;96532.00;;;;5043195;28;20196;-68
2023/10/15 03:33:11;;;;;;;2.37;1.53;;;;;15.00;96536.00;;;;5057846;28;20203;-69
2023/10/15 03:36:03;;;;;;;1.33;0.90;;;;;15.20;96539.00;;;;5061787;28;20229;-68
2023/10/15 03:38:52;;;;;;;2.53;1.53;;;;;15.00;96533.00;;;;5039171;28;20200;-68
2023/10/15 03:41:41;;;;;;;4.70;2.90;;;;;15.20;96529.00;;;;5048544;28;20205;-68
2023/10/15 03:44:33;;;;;;;5.40;2.93;;;;;15.30;96522.00;;;;5064830;28;20231;-68
2023/10/15 03:47:23;;;;;;;2.37;1.57;;;;;15.20;96521.00;;;;5061504;28;20204;-68
2023/10/15 03:50:13;;;;;;;3.80;2.17;;;;;15.20;96522.00;;;;5045856;28;20213;-68
2023/10/15 03:53:04;;;;;;;2.77;1.67;;;;;15.20;96517.00;;;;5056981;28;20208;-68
2023/10/15 03:55:53;;;;;;;4.00;2.40;;;;;15.20;96516.00;;;;5054748;28;20727;-68
2023/10/15 03:58:42;;;;;;;3.73;2.37;;;;;14.80;96512.00;;;;5053986;28;20211;-69
2023/10/15 04:01:37;;;;;;;4.40;2.67;;;;;14.60;96523.00;;;;5060024;28;20196;-68
2023/10/15 04:04:27;;;;;;;3.13;1.87;;;;;13.60;96520.00;;;;5066034;28;20250;-68
2023/10/15 04:07:21;;;;;;;3.20;1.83;;;;;14.00;96534.00;;;;5062845;28;20189;-68
2023/10/15 04:10:12;;;;;;;3.37;2.07;;;;;14.30;96534.00;;;;5045579;28;20217;-68
2023/10/15 04:13:02;;;;;;;2.37;1.60;;;;;14.30;96535.00;;;;5057390;28;20200;-68
2023/10/15 04:15:51;;;;;;;4.33;2.57;;;;;14.60;96538.00;;;;5060731;28;20227;-68
2023/10/15 04:18:42;;;;;;;4.10;2.60;;;;;14.60;96540.00;;;;5066088;28;20200;-69
2023/10/15 04:21:31;;;;;;;4.43;2.60;;;;;14.70;96541.00;;;;5066363;28;20211;-68
2023/10/15 04:24:28;;;;;;;0.90;0.60;;;;;14.90;96531.00;;;;5051112;28;20236;-68
2023/10/15 04:27:18;;;;;;;2.43;1.53;;;;;14.80;96537.00;;;;5050281;28;20212;-68
2023/10/15 04:30:13;;;;;;;2.13;1.17;;;;;14.60;96547.00;;;;5052758;28;20199;-68
2023/10/15 04:33:07;;;;;;;2.60;1.60;;;;;14.40;96537.00;;;;5053445;28;20209;-67
2023/10/15 04:35:57;;;;;;;4.00;2.27;;;;;14.80;96534.00;;;;5043871;28;20225;-67
2023/10/15 04:38:47;;;;;;;3.07;1.90;;;;;14.80;96554.00;;;;5050049;28;20580;-68
2023/10/15 04:41:36;;;;;;;5.33;3.10;;;;;14.80;96542.00;;;;5055991;28;20204;-67
2023/10/15 04:44:31;;;;;;;2.83;1.77;;;;;14.80;96542.00;;;;5045841;28;20747;-67
2023/10/15 04:47:25;;;;;;;2.80;1.67;;;;;14.20;96549.00;;;;5065361;28;20195;-67
2023/10/15 04:50:15;;;;;;;3.90;2.13;;;;;14.60;96560.00;;;;5062927;28;20204;-67
2023/10/15 04:53:15;;;;;;;2.53;1.63;;;;;14.40;96564.00;;;;5044405;28;20196;-67
2023/10/15 04:56:04;;;;;;;2.77;1.63;;;;;14.50;96564.00;;;;5056857;28;20713;-68
2023/10/15 04:58:53;;;;;;;3.07;1.80;;;;;14.70;96562.00;;;;5050596;28;20232;-67
2023/10/15 05:01:43;;;;;;;4.43;2.67;;;;;14.10;96559.00;;;;5066978;28;20577;-68
2023/10/15 05:04:32;;;;;;;4.73;2.83;;;;;13.90;96560.00;;;;5060693;28;20709;-68
2023/10/15 05:07:21;;;;;;;2.57;1.60;;;;;14.30;96561.00;;;;5061466;28;20204;-68
2023/10/15 05:10:12;;;;;;;3.40;1.93;;;;;14.20;96571.00;;;;5049119;28;20197;-68
2023/10/15 05:13:01;;;;;;;3.03;1.63;;;;;14.00;96566.00;;;;5055968;28;20200;-69
2023/10/15 05:15:50;;;;;;;4.43;2.53;;;;;14.40;96567.00;;;;5056476;28;20197;-68
2023/10/15 05:18:39;;;;;;;4.90;2.90;;;;;14.30;96567.00;;;;5053767;28;20209;-68
2023/10/15 05:21:29;;;;;;;3.30;1.97;;;;;14.20;96580.00;;;;5059506;28;20208;-68
2023/10/15 05:24:19;;;;;;;0.97;0.60;;;;;14.20;96586.00;;;;5057154;28;20239;-68
2023/10/15 05:27:12;;;;;;;3.40;1.90;;;;;14.20;96582.00;;;;5046164;28;20769;-68
2023/10/15 05:30:01;;;;;;;3.30;1.90;;;;;14.00;96586.00;;;;5052274;28;20196;-68
2023/10/15 05:32:50;;;;;;;2.83;1.70;;;;;13.80;96580.00;;;;5057498;28;20684;-68
2023/10/15 05:35:40;;;;;;;6.17;3.43;;;;;14.30;96586.00;;;;5064084;28;20257;-68
2023/10/15 05:38:29;;;;;;;2.87;1.80;;;;;14.30;96579.00;;;;5048587;28;20231;-68
2023/10/15 05:41:19;;;;;;;2.23;1.47;;;;;14.50;96568.00;;;;5053212;28;20196;-68
2023/10/15 05:44:10;;;;;;;3.00;1.73;;;;;14.30;96562.00;;;;5061944;28;20720;-68
2023/10/15 05:46:59;;;;;;;3.03;1.73;;;;;14.00;96565.00;;;;5067787;28;20214;-69
2023/10/15 05:49:48;;;;;;;3.37;1.90;;;;;14.10;96578.00;;;;5063914;28;20250;-68
2023/10/15 05:52:37;;;;;;;3.03;1.77;;;;;14.30;96580.00;;;;5050878;28;20212;-68
2023/10/15 05:55:26;;;;;;;1.27;0.87;;;;;14.50;96581.00;;;;5044228;28;20220;-68
2023/10/15 05:58:15;;;;;;;1.40;0.87;;;;;14.30;96583.00;;;;5042356;28;20220;-68
2023/10/15 06:01:07;;;;;;;3.67;1.97;;;;;14.10;96595.00;;;;5045786;28;20291;-68
2023/10/15 06:03:57;;;;;;;1.43;0.93;;;;;14.50;96585.00;;;;5042903;28;20227;-68
2023/10/15 06:06:46;;;;;;;6.57;3.77;;;;;14.40;96588.00;;;;5048881;28;20196;-68
2023/10/15 06:09:35;;;;;;;6.47;3.50;;;;;14.00;96609.00;;;;5048505;28;20196;-68
2023/10/15 06:12:24;;;;;;;3.37;1.77;;;;;14.10;96624.00;;;;5045137;28;20578;-68
2023/10/15 06:15:15;;;;;;;6.50;3.37;;;;;14.40;96621.00;;;;5035809;28;20225;-68
2023/10/15 06:18:09;;;;;;;3.53;2.00;;;;;14.60;96614.00;;;;5030511;28;20244;-68
2023/10/15 06:20:58;;;;;;;4.37;2.20;;;;;14.40;96621.00;;;;5039119;28;20212;-68
2023/10/15 06:23:47;;;;;;;3.23;1.90;;;;;14.30;96622.00;;;;5041449;28;20228;-67
2023/10/15 06:26:37;;;;;;;4.90;2.97;;;;;14.40;96625.00;;;;5034858;28;20201;-68
2023/10/15 06:29:26;;;;;;;2.87;1.63;;;;;14.40;96615.00;;;;5035183;28;20205;-68
2023/10/15 06:32:15;;;;;;;2.73;1.67;;;;;14.70;96619.00;;;;5034798;28;20615;-68
2023/10/15 06:35:06;;;;;;;3.47;1.87;;;;;14.70;96632.00;;;;5033606;28;20225;-68
2023/10/15 06:37:57;;;;;;;3.33;2.10;;;;;14.40;96637.00;;;;5032315;28;20713;-68
2023/10/15 06:40:46;;;;;;;7.23;4.37;;;;;14.10;96633.00;;;;5034727;28;20576;-69
2023/10/15 06:43:36;;;;;;;6.53;3.80;;;;;13.50;96630.00;;;;5042479;28;20221;-68
2023/10/15 06:46:26;;;;;;;5.07;2.87;;;;;13.60;96636.00;;;;5044435;28;20200;-68
2023/10/15 06:49:15;;;;;;;2.30;1.57;;;;;13.60;96630.00;;;;5045805;28;20297;-68
2023/10/15 06:52:06;;;;;;;2.77;1.70;;;;;13.60;96640.00;;;;5048696;28;20212;-68
2023/10/15 06:54:55;;;;;;;2.97;1.87;;;;;14.10;96639.00;;;;5054229;28;20224;-68
2023/10/15 06:57:44;;;;;;;6.63;4.20;;;;;14.20;96648.00;;;;5044910;28;20224;-68
2023/10/15 07:00:36;;;;;;;5.43;3.17;;;;;13.90;96646.00;;;;5044985;28;20204;-68
2023/10/15 07:03:25;;;;;;;2.53;1.60;;;;;13.70;96650.00;;;;5046755;28;20200;-68
2023/10/15 07:06:14;;;;;;;2.93;1.63;;;;;13.90;96641.00;;;;5049347;28;20238;-68
2023/10/15 07:09:04;;;;;;;2.93;1.60;;;;;13.90;96648.00;;;;5050216;28;20192;-68
2023/10/15 07:11:53;;;;;;;3.00;1.93;;;;;14.20;96641.00;;;;5050346;28;20192;-68
2023/10/15 07:14:42;;;;;;;5.03;2.90;;;;;14.10;96647.00;;;;5050860;28;20220;-68
2023/10/15 07:17:31;;;;;;;3.30;1.87;;;;;14.10;96652.00;;;;5055543;28;20227;-67
2023/10/15 07:20:24;;;;;;;2.83;1.73;;;;;14.20;96656.00;;;;5050841;28;20636;-68
2023/10/15 07:23:14;;;;;;;2.23;1.53;;;;;14.20;96674.00;;;;5061871;28;20204;-68
2023/10/15 07:26:04;;;;;;;3.03;1.77;;;;;14.40;96674.00;;;;5056993;28;20267;-68
2023/10/15 07:28:53;;;;;;;2.60;1.70;;;;;14.50;96677.00;;;;5059268;28;20201;-68
2023/10/15 07:31:42;;;;;;;4.50;2.77;;;;;14.70;96681.00;;;;5050073;28;20722;-68
2023/10/15 07:34:32;;;;;;;3.60;2.13;;;;;14.40;96687.00;;;;5050011;28;20224;-68
2023/10/15 07:37:21;;;;;;;2.23;1.30;;;;;14.30;96690.00;;;;5049151;28;20225;-68
2023/10/15 07:40:17;;;;;;;2.67;1.47;;;;;14.20;96690.00;;;;5051658;28;20681;-68
2023/10/15 07:43:08;;;;;;;2.53;1.67;;;;;14.50;96698.00;;;;5052348;28;20260;-68
2023/10/15 07:45:59;;;;;;;3.47;2.03;;;;;14.50;96703.00;;;;5046752;28;20786;-68
2023/10/15 07:48:48;;;;;;;4.10;2.50;;;;;14.60;96712.00;;;;5050031;28;20200;-68
2023/10/15 07:51:37;;;;;;;5.47;3.20;;;;;14.60;96712.00;;;;5051630;28;20204;-69
2023/10/15 07:54:26;;;;;;;4.17;2.37;;;;;14.40;96700.00;;;;5050864;28;20224;-68
2023/10/15 07:57:15;;;;;;;3.13;1.90;;;;;14.70;96716.00;;;;5059941;28;20215;-68
2023/10/15 08:00:08;;;;;;;3.43;2.10;;;;;14.70;96711.00;;;;5051462;28;20204;-68
2023/10/15 08:02:58;;;;;;;2.00;1.10;;;;;14.70;96712.00;;;;5051000;28;20196;-68
2023/10/15 08:05:48;;;;;;;6.07;3.50;;;;;14.40;96718.00;;;;5054797;28;20259;-68
2023/10/15 08:08:37;;;;;;;4.90;2.67;;;;;14.50;96728.00;;;;5058586;28;20211;-68
2023/10/15 08:11:26;;;;;;;2.63;1.67;;;;;14.60;96725.00;;;;5047134;28;20704;-68
2023/10/15 08:14:15;;;;;;;3.73;2.03;;;;;14.80;96723.00;;;;5048971;28;20224;-68
2023/10/15 08:17:06;;;;;;;2.03;1.30;;;;;14.70;96725.00;;;;5041556;28;20202;-68
2023/10/15 08:19:55;;;;;;;2.87;1.73;;;;;14.50;96722.00;;;;5050299;28;20204;-68
2023/10/15 08:22:45;;;;;;;6.00;3.33;;;;;14.10;96726.00;;;;5057470;28;20610;-69
2023/10/15 08:25:36;;;;;;;3.63;2.20;;;;;14.00;96730.00;;;;5082459;22;20837;-66
2023/10/15 08:28:26;;;;;;;2.77;1.67;;;;;14.20;96727.00;;;;5066281;28;20217;-66
2023/10/15 08:31:15;;;;;;;2.53;1.70;;;;;14.40;96741.00;;;;5068723;28;20600;-66
2023/10/15 08:34:05;;;;;;;2.70;1.67;;;;;13.80;96736.00;;;;5076738;28;20212;-66
2023/10/15 08:36:54;;;;;;;2.07;1.47;;;;;14.00;96749.00;;;;5079746;28;20211;-66
2023/10/15 08:39:43;;;;;;;3.70;2.37;;;;;13.80;96747.00;;;;5070770;28;20228;-66
2023/10/15 08:42:36;;;;;;;3.00;1.97;;;;;14.10;96759.00;;;;5069961;28;20211;-66
2023/10/15 08:45:25;;;;;;;2.23;1.43;;;;;14.50;96762.00;;;;5071663;28;20937;-66
2023/10/15 08:48:16;;;;;;;7.37;4.70;;;;;14.30;96767.00;;;;5065784;28;20329;-66
2023/10/15 08:51:08;;;;;;;2.20;1.43;;;;;13.70;96772.00;;;;5071552;28;20210;-66
2023/10/15 08:53:58;;;;;;;3.07;1.93;;;;;13.50;96766.00;;;;5067648;28;20689;-66
2023/10/15 08:56:47;;;;;;;3.80;2.70;;;;;14.10;96777.00;;;;5067072;28;20208;-66
2023/10/15 08:59:44;;;;;;;3.97;2.67;;;;;13.70;96763.00;;;;5067081;28;20220;-68
2023/10/15 09:02:35;;;;;;;5.20;3.23;;;;;13.20;96769.00;;;;5066574;28;20203;-66
2023/10/15 09:05:24;;;;;;;4.30;2.83;;;;;13.00;96759.00;;;;5067413;28;20254;-67
2023/10/15 09:08:17;;;;;;;1.20;0.87;;;;;13.50;96775.00;;;;5065958;28;20192;-66
2023/10/15 09:11:06;;;;;;;2.53;1.67;;;;;13.70;96771.00;;;;5066293;28;20219;-65
2023/10/15 09:13:58;;;;;;;4.40;2.50;;;;;14.10;96779.00;;;;5065958;28;20199;-64
2023/10/15 09:16:47;;;;;;;4.63;2.93;;;;;14.00;96780.00;;;;5065446;28;20206;-65
2023/10/15 09:19:37;;;;;;;3.80;2.30;;;;;13.30;96775.00;;;;5066924;28;20619;-65
2023/10/15 09:22:26;;;;;;;2.70;1.70;;;;;13.50;96771.00;;;;5069955;28;20211;-64
2023/10/15 09:25:16;;;;;;;4.57;2.67;;;;;14.00;96775.00;;;;5063908;28;20716;-65
2023/10/15 09:28:06;;;;;;;2.87;1.77;;;;;14.40;96762.00;;;;5067195;28;20219;-65
2023/10/15 09:31:03;;;;;;;4.57;2.77;;;;;14.40;96768.00;;;;5065524;28;20224;-65
2023/10/15 09:33:52;;;;;;;3.93;2.57;;;;;14.40;96774.00;;;;5067009;28;20210;-65
2023/10/15 09:36:41;;;;;;;6.57;4.13;;;;;14.70;96771.00;;;;5065067;28;20196;-65
2023/10/15 09:39:30;;;;;;;2.67;1.77;;;;;14.70;96782.00;;;;5066900;28;20235;-65
2023/10/15 09:42:21;;;;;;;2.37;1.47;;;;;14.60;96776.00;;;;5068198;28;20963;-65
2023/10/15 09:45:15;;;;;;;4.17;2.33;;;;;14.60;96765.00;;;;5061301;28;20234;-65
2023/10/15 09:48:05;;;;;;;2.23;1.43;;;;;14.50;96764.00;;;;5069253;28;20211;-66
2023/10/15 09:50:57;;;;;;;1.73;1.07;;;;;14.60;96767.00;;;;5066316;28;20661;-65
2023/10/15 09:53:49;;;;;;;5.23;3.17;;;;;14.20;96772.00;;;;5069787;28;20287;-64
2023/10/15 09:56:41;;;;;;;5.90;3.33;;;;;14.30;96771.00;;;;5065585;28;20199;-65
2023/10/15 09:59:31;;;;;;;2.90;1.73;;;;;14.20;96769.00;;;;5065902;28;20309;-64
2023/10/15 10:02:22;;;;;;;2.50;1.60;;;;;14.00;96760.00;;;;5067618;28;20211;-64
2023/10/15 10:05:30;;;;;;;3.90;2.20;;;;;13.90;96765.00;;;;5064241;28;20212;-64
2023/10/15 10:08:32;;;;;;;2.30;1.53;;;;;14.00;96756.00;;;;5064519;28;20214;-65
2023/10/15 10:11:35;;;;;;;2.10;1.40;;;;;14.10;96771.00;;;;5065523;28;20207;-65
2023/10/15 10:14:40;;;;;;;2.33;1.50;;;;;14.20;96784.00;;;;5064410;28;20711;-66
2023/10/15 10:17:29;;;;;;;2.67;1.70;;;;;14.00;96771.00;;;;5065195;28;20216;-65
2023/10/15 10:20:20;;;;;;;3.00;1.87;;;;;14.10;96765.00;;;;5066214;28;20765;-64
2023/10/15 10:23:09;;;;;;;2.30;1.50;;;;;14.30;96755.00;;;;5068778;28;20589;-65
2023/10/15 10:25:58;;;;;;;2.87;1.77;;;;;13.90;96752.00;;;;5061887;28;20223;-65
2023/10/15 10:28:48;;;;;;;4.47;2.70;;;;;14.20;96768.00;;;;5067057;28;20673;-66
2023/10/15 10:31:39;;;;;;;5.67;3.27;;;;;13.90;96758.00;;;;5067133;28;20200;-65
2023/10/15 10:34:32;;;;;;;3.50;2.20;;;;;13.90;96731.00;;;;5064876;28;20232;-65
2023/10/15 10:37:33;;;;;;;2.87;1.87;;;;;13.50;96739.00;;;;5065813;28;20203;-65
2023/10/15 10:40:47;;;;;;;4.50;2.70;;;;;14.20;96749.00;;;;5067594;28;20616;-65
2023/10/15 10:43:40;;;;;;;4.73;2.67;;;;;13.60;96747.00;;;;5067700;28;20706;-66
2023/10/15 10:46:29;;;;;;;4.03;2.20;;;;;14.00;96745.00;;;;5068099;28;20198;-65
2023/10/15 10:49:29;;;;;;;3.97;2.43;;;;;14.60;96742.00;;;;5064647;28;20210;-65
2023/10/15 10:52:18;;;;;;;3.27;1.87;;;;;14.40;96747.00;;;;5066590;28;20204;-66
2023/10/15 10:55:31;;;;;;;2.93;1.87;;;;;14.10;96751.00;;;;5063904;28;20716;-65
2023/10/15 10:58:25;;;;;;;2.83;1.67;;;;;14.30;96742.00;;;;5070244;28;20252;-65
2023/10/15 11:01:15;;;;;;;3.10;1.83;;;;;14.30;96723.00;;;;5066387;28;20200;-66
2023/10/15 11:04:04;;;;;;;3.60;2.00;;;;;14.20;96726.00;;;;5073050;28;20219;-66
2023/10/15 11:06:55;;;;;;;2.73;1.77;;;;;13.70;96728.00;;;;5072986;28;20309;-65
2023/10/15 11:09:44;;;;;;;4.17;2.47;;;;;13.80;96732.00;;;;5071445;28;20763;-65
2023/10/15 11:12:33;;;;;;;2.97;1.90;;;;;13.70;96730.00;;;;5071944;28;20562;-66
2023/10/15 11:15:22;;;;;;;3.67;2.23;;;;;14.20;96723.00;;;;5074413;28;20314;-65
2023/10/15 11:18:12;;;;;;;2.90;1.80;;;;;13.90;96714.00;;;;5072272;28;20964;-65
2023/10/15 11:21:01;;;;;;;3.30;1.93;;;;;14.40;96721.00;;;;5070472;28;20700;-65
2023/10/15 11:23:53;;;;;;;5.00;3.10;;;;;14.30;96723.00;;;;5073282;28;20203;-65
2023/10/15 11:26:44;;;;;;;5.43;3.27;;;;;14.20;96727.00;;;;5070911;28;20202;-65
2023/10/15 11:29:34;;;;;;;2.77;1.70;;;;;13.80;96743.00;;;;5072872;28;20222;-67
2023/10/15 11:32:23;;;;;;;3.07;1.83;;;;;13.50;96734.00;;;;5073733;28;20199;-65
2023/10/15 11:35:16;;;;;;;4.80;2.80;;;;;13.70;96739.00;;;;5068239;28;20219;-65
2023/10/15 11:38:09;;;;;;;2.93;1.70;;;;;13.60;96725.00;;;;5074233;28;20204;-66
2023/10/15 11:41:00;;;;;;;2.97;1.83;;;;;13.80;96733.00;;;;5067447;28;20224;-65
2023/10/15 11:43:50;;;;;;;5.23;3.30;;;;;14.20;96728.00;;;;5072251;28;20212;-66
2023/10/15 11:46:40;;;;;;;5.07;2.97;;;;;14.60;96725.00;;;;5071217;28;20204;-65
2023/10/15 11:49:30;;;;;;;2.27;1.30;;;;;14.90;96721.00;;;;5069796;28;20204;-65
2023/10/15 11:52:22;;;;;;;3.23;2.00;;;;;14.00;96726.00;;;;5074903;28;20253;-66
2023/10/15 11:55:19;;;;;;;3.53;2.10;;;;;14.20;96723.00;;;;5073757;28;20219;-67
2023/10/15 11:58:11;;;;;;;3.63;2.07;;;;;15.00;96729.00;;;;5067525;28;20196;-65
2023/10/15 12:01:00;;;;;;;3.07;1.80;;;;;13.90;96730.00;;;;5074131;28;20220;-65
2023/10/15 12:03:50;;;;;;;4.90;3.00;;;;;14.00;96743.00;;;;5072289;28;20682;-64
2023/10/15 12:06:39;;;;;;;5.00;2.80;;;;;14.60;96739.00;;;;5072330;28;20242;-65
2023/10/15 12:09:31;;;;;;;3.10;1.90;;;;;14.40;96732.00;;;;5070751;28;20585;-65
2023/10/15 12:12:20;;;;;;;3.03;1.87;;;;;14.60;96734.00;;;;5071340;28;20215;-64
2023/10/15 12:15:12;;;;;;;3.87;2.30;;;;;15.00;96747.00;;;;5065399;28;20219;-65
2023/10/15 12:18:03;;;;;;;2.93;1.73;;;;;14.40;96764.00;;;;5064024;28;20196;-65
2023/10/15 12:20:53;;;;;;;6.13;3.53;;;;;14.70;96750.00;;;;5069635;28;20235;-65
2023/10/15 12:23:43;;;;;;;8.20;4.60;;;;;15.00;96747.00;;;;5063624;28;20203;-65
2023/10/15 12:26:32;;;;;;;4.17;2.40;;;;;14.70;96736.00;;;;5065435;28;20252;-65
2023/10/15 12:29:28;;;;;;;2.97;1.73;;;;;14.50;96728.00;;;;5074875;28;20585;-65
2023/10/15 12:32:22;;;;;;;3.27;1.77;;;;;14.50;96732.00;;;;5054288;28;20207;-65
2023/10/15 12:35:19;;;;;;;5.73;2.90;;;;;14.40;96732.00;;;;5075539;28;20216;-65
2023/10/15 12:38:12;;;;;;;5.00;2.70;;;;;14.80;96747.00;;;;5064559;28;20213;-65
2023/10/15 12:41:02;;;;;;;3.50;2.00;;;;;15.00;96743.00;;;;5061066;28;20230;-65
2023/10/15 12:43:58;;;;;;;5.87;3.50;;;;;14.90;96735.00;;;;5066044;28;20713;-65
2023/10/15 12:46:47;;;;;;;8.63;4.87;;;;;15.00;96741.00;;;;5059767;28;20192;-65
2023/10/15 12:49:39;;;;;;;7.30;3.73;;;;;15.10;96720.00;;;;5061891;28;20208;-65
2023/10/15 12:52:28;;;;;;;4.63;2.60;;;;;14.80;96734.00;;;;5065243;28;20199;-65
2023/10/15 12:55:18;;;;;;;6.23;3.23;;;;;14.40;96753.00;;;;5059910;28;20238;-65
2023/10/15 12:58:09;;;;;;;4.10;2.33;;;;;14.00;96755.00;;;;5064842;28;20204;-64
2023/10/15 13:00:58;;;;;;;3.60;2.00;;;;;14.00;96748.00;;;;5064239;28;20238;-65
2023/10/15 13:03:49;;;;;;;5.43;3.17;;;;;14.40;96742.00;;;;5066448;28;20204;-65
2023/10/15 13:06:39;;;;;;;7.83;4.10;;;;;14.10;96743.00;;;;5067275;28;20226;-65
2023/10/15 13:09:32;;;;;;;3.13;1.77;;;;;13.50;96736.00;;;;5065676;28;20207;-65
2023/10/15 13:12:25;;;;;;;3.40;2.00;;;;;13.70;96739.00;;;;5063678;28;20204;-65
2023/10/15 13:15:16;;;;;;;4.37;2.50;;;;;14.10;96739.00;;;;5064447;28;20219;-65
2023/10/15 13:18:05;;;;;;;2.73;1.73;;;;;14.30;96727.00;;;;5067548;28;20208;-65
2023/10/15 13:20:57;;;;;;;2.73;1.60;;;;;14.30;96720.00;;;;5063662;28;20712;-65
2023/10/15 13:23:47;;;;;;;4.37;2.60;;;;;14.20;96719.00;;;;5066266;28;20207;-65
2023/10/15 13:26:39;;;;;;;4.10;2.23;;;;;14.40;96723.00;;;;5065896;28;20204;-65
2023/10/15 13:29:29;;;;;;;5.23;2.83;;;;;13.90;96718.00;;;;5068631;28;20203;-65
2023/10/15 13:32:18;;;;;;;2.60;1.80;;;;;14.00;96720.00;;;;5063970;28;20199;-65
2023/10/15 13:35:08;;;;;;;3.10;1.77;;;;;13.40;96722.00;;;;5068367;28;20219;-64
2023/10/15 13:37:58;;;;;;;4.30;2.40;;;;;12.70;96714.00;;;;5066488;28;20206;-65
2023/10/15 13:40:48;;;;;;;6.60;3.80;;;;;13.60;96721.00;;;;5066582;28;20228;-65
2023/10/15 13:43:37;;;;;;;5.37;2.90;;;;;14.20;96733.00;;;;5063544;28;20211;-65
2023/10/15 13:46:26;;;;;;;3.00;1.77;;;;;13.40;96740.00;;;;5066053;28;20207;-65
2023/10/15 13:49:17;;;;;;;3.37;1.83;;;;;12.90;96732.00;;;;5068275;28;20693;-66
2023/10/15 13:52:06;;;;;;;3.40;1.93;;;;;12.90;96739.00;;;;5067350;28;20214;-64
2023/10/15 13:54:55;;;;;;;2.70;1.63;;;;;13.20;96743.00;;;;5067403;28;20227;-65
2023/10/15 13:57:46;;;;;;;9.40;5.13;;;;;12.70;96750.00;;;;5067308;28;20215;-65
2023/10/15 14:00:37;;;;;;;3.87;2.23;;;;;12.70;96748.00;;;;5068451;28;20611;-65
2023/10/15 14:03:26;;;;;;;4.07;2.13;;;;;12.90;96753.00;;;;5068291;28;20215;-66
2023/10/15 14:06:15;;;;;;;2.50;1.60;;;;;12.80;96744.00;;;;5062141;28;20196;-67
2023/10/15 14:09:08;;;;;;;3.40;1.90;;;;;12.80;96739.00;;;;5061618;28;20206;-63
2023/10/15 14:11:57;;;;;;;3.03;1.70;;;;;12.90;96752.00;;;;5060190;28;20250;-66
2023/10/15 14:14:47;;;;;;;4.80;2.77;;;;;13.40;96760.00;;;;5067314;28;20684;-65
2023/10/15 14:17:36;;;;;;;5.50;2.73;;;;;13.40;96761.00;;;;5066988;28;20196;-65
2023/10/15 14:20:26;;;;;;;4.20;2.27;;;;;13.60;96763.00;;;;5068136;28;20238;-65